sensor_id;sensor_type;location;lat;lon;timestamp;temperature;humidity
47626;DHT22;33342;45.574;9.252;2023-07-13T00:00:57;24.10;1.00
47626;DHT22;33342;45.574;9.252;2023-07-13T00:03:24;24.10;1.00
47626;DHT22;33342;45.574;9.252;2023-07-13T00:05:59;24.10;1.00
47626;DHT22;33342;45.574;9.252;2023-07-13T00:08:26;24.20;1.00
47626;DHT22;33342;45.574;9.252;2023-07-13T00:10:53;24.20;1.00
47626;DHT22;33342;45.574;9.252;2023-07-13T00:13:21;24.20;1.00
47626;DHT22;33342;45.574;9.252;2023-07-13T00:15:48;24.30;1.00
47626;DHT22;33342;45.574;9.252;2023-07-13T00:18:15;24.30;1.00
47626;DHT22;33342;45.574;9.252;2023-07-13T00:20:42;24.30;1.00
47626;DHT22;33342;45.574;9.252;2023-07-13T00:23:10;24.30;1.00
47626;DHT22;33342;45.574;9.252;2023-07-13T00:25:37;24.30;1.00
47626;DHT22;33342;45.574;9.252;2023-07-13T00:28:04;24.30;1.00
47626;DHT22;33342;45.574;9.252;2023-07-13T00:30:32;24.30;1.00
47626;DHT22;33342;45.574;9.252;2023-07-13T00:32:59;24.30;1.00
47626;DHT22;33342;45.574;9.252;2023-07-13T00:35:44;24.30;1.00
47626;DHT22;33342;45.574;9.252;2023-07-13T00:38:12;24.20;1.00
47626;DHT22;33342;45.574;9.252;2023-07-13T00:40:40;24.20;1.00
47626;DHT22;33342;45.574;9.252;2023-07-13T00:43:17;24.20;1.00
47626;DHT22;33342;45.574;9.252;2023-07-13T00:48:15;24.10;1.00
47626;DHT22;33342;45.574;9.252;2023-07-13T00:50:45;24.10;1.00
47626;DHT22;33342;45.574;9.252;2023-07-13T00:53:14;24.10;1.00
47626;DHT22;33342;45.574;9.252;2023-07-13T00:55:42;24.10;1.00
47626;DHT22;33342;45.574;9.252;2023-07-13T00:58:09;24.10;1.00
47626;DHT22;33342;45.574;9.252;2023-07-13T01:00:38;24.00;1.00
47626;DHT22;33342;45.574;9.252;2023-07-13T01:03:05;24.10;1.00
47626;DHT22;33342;45.574;9.252;2023-07-13T01:05:34;24.10;1.00
47626;DHT22;33342;45.574;9.252;2023-07-13T01:08:03;24.10;1.00
47626;DHT22;33342;45.574;9.252;2023-07-13T01:10:33;24.10;1.00
47626;DHT22;33342;45.574;9.252;2023-07-13T01:13:08;24.10;1.00
47626;DHT22;33342;45.574;9.252;2023-07-13T01:15:44;24.10;1.00
47626;DHT22;33342;45.574;9.252;2023-07-13T01:18:35;24.10;1.00
47626;DHT22;33342;45.574;9.252;2023-07-13T01:21:04;24.00;1.00
47626;DHT22;33342;45.574;9.252;2023-07-13T01:23:32;24.10;1.00
47626;DHT22;33342;45.574;9.252;2023-07-13T01:26:00;24.10;1.00
47626;DHT22;33342;45.574;9.252;2023-07-13T01:28:28;24.10;1.00
47626;DHT22;33342;45.574;9.252;2023-07-13T01:30:58;24.10;1.00
47626;DHT22;33342;45.574;9.252;2023-07-13T01:33:25;24.10;1.00
47626;DHT22;33342;45.574;9.252;2023-07-13T01:35:53;24.10;1.00
47626;DHT22;33342;45.574;9.252;2023-07-13T01:38:21;24.20;1.00
47626;DHT22;33342;45.574;9.252;2023-07-13T01:40:51;24.20;1.00
47626;DHT22;33342;45.574;9.252;2023-07-13T01:43:19;24.20;1.00
47626;DHT22;33342;45.574;9.252;2023-07-13T01:45:46;24.30;1.00
47626;DHT22;33342;45.574;9.252;2023-07-13T01:48:13;24.30;1.00
47626;DHT22;33342;45.574;9.252;2023-07-13T01:50:41;24.30;1.00
47626;DHT22;33342;45.574;9.252;2023-07-13T01:53:09;24.40;1.00
47626;DHT22;33342;45.574;9.252;2023-07-13T01:55:37;24.40;1.00
47626;DHT22;33342;45.574;9.252;2023-07-13T01:58:05;24.40;1.00
47626;DHT22;33342;45.574;9.252;2023-07-13T02:00:32;24.50;1.00
47626;DHT22;33342;45.574;9.252;2023-07-13T02:03:01;24.50;1.00
47626;DHT22;33342;45.574;9.252;2023-07-13T02:05:31;24.40;1.00
47626;DHT22;33342;45.574;9.252;2023-07-13T02:07:58;24.40;1.00
47626;DHT22;33342;45.574;9.252;2023-07-13T02:10:26;24.50;1.00
47626;DHT22;33342;45.574;9.252;2023-07-13T02:12:53;24.50;1.00
47626;DHT22;33342;45.574;9.252;2023-07-13T02:15:20;24.50;1.00
47626;DHT22;33342;45.574;9.252;2023-07-13T02:17:47;24.50;1.00
47626;DHT22;33342;45.574;9.252;2023-07-13T02:20:15;24.50;99.90
47626;DHT22;33342;45.574;9.252;2023-07-13T02:22:42;24.50;99.90
47626;DHT22;33342;45.574;9.252;2023-07-13T02:25:09;24.50;99.90
47626;DHT22;33342;45.574;9.252;2023-07-13T02:27:36;24.50;99.90
47626;DHT22;33342;45.574;9.252;2023-07-13T02:30:04;24.50;99.90
47626;DHT22;33342;45.574;9.252;2023-07-13T02:32:32;24.50;99.90
47626;DHT22;33342;45.574;9.252;2023-07-13T02:34:59;24.50;99.90
47626;DHT22;33342;45.574;9.252;2023-07-13T02:37:28;24.50;99.90
47626;DHT22;33342;45.574;9.252;2023-07-13T02:39:56;24.50;99.90
47626;DHT22;33342;45.574;9.252;2023-07-13T02:42:24;24.50;99.90
47626;DHT22;33342;45.574;9.252;2023-07-13T02:44:51;24.50;99.90
47626;DHT22;33342;45.574;9.252;2023-07-13T02:47:18;24.50;99.90
47626;DHT22;33342;45.574;9.252;2023-07-13T02:49:45;24.50;99.90
47626;DHT22;33342;45.574;9.252;2023-07-13T02:52:12;24.60;99.90
47626;DHT22;33342;45.574;9.252;2023-07-13T02:54:39;24.60;99.90
47626;DHT22;33342;45.574;9.252;2023-07-13T02:57:07;24.60;99.90
47626;DHT22;33342;45.574;9.252;2023-07-13T02:59:34;24.60;99.90
47626;DHT22;33342;45.574;9.252;2023-07-13T03:02:02;24.60;99.90
47626;DHT22;33342;45.574;9.252;2023-07-13T03:04:30;24.60;99.90
47626;DHT22;33342;45.574;9.252;2023-07-13T03:06:57;24.60;99.90
47626;DHT22;33342;45.574;9.252;2023-07-13T03:09:32;24.60;99.90
47626;DHT22;33342;45.574;9.252;2023-07-13T03:12:01;24.60;99.90
47626;DHT22;33342;45.574;9.252;2023-07-13T03:14:31;24.60;99.90
47626;DHT22;33342;45.574;9.252;2023-07-13T03:16:59;24.60;99.90
47626;DHT22;33342;45.574;9.252;2023-07-13T03:19:30;24.60;99.90
47626;DHT22;33342;45.574;9.252;2023-07-13T03:21:57;24.70;99.90
47626;DHT22;33342;45.574;9.252;2023-07-13T03:24:25;24.60;99.90
47626;DHT22;33342;45.574;9.252;2023-07-13T03:26:53;24.70;99.90
47626;DHT22;33342;45.574;9.252;2023-07-13T03:29:20;24.70;99.90
47626;DHT22;33342;45.574;9.252;2023-07-13T03:31:47;24.70;99.90
47626;DHT22;33342;45.574;9.252;2023-07-13T03:34:14;24.70;99.90
47626;DHT22;33342;45.574;9.252;2023-07-13T03:36:42;24.70;99.90
47626;DHT22;33342;45.574;9.252;2023-07-13T03:39:11;24.70;99.90
47626;DHT22;33342;45.574;9.252;2023-07-13T03:41:54;24.70;99.90
47626;DHT22;33342;45.574;9.252;2023-07-13T03:44:22;24.70;99.90
47626;DHT22;33342;45.574;9.252;2023-07-13T03:46:53;24.70;99.90
47626;DHT22;33342;45.574;9.252;2023-07-13T03:49:21;24.70;99.90
47626;DHT22;33342;45.574;9.252;2023-07-13T03:51:48;24.70;99.90
47626;DHT22;33342;45.574;9.252;2023-07-13T03:54:19;24.70;99.90
47626;DHT22;33342;45.574;9.252;2023-07-13T03:56:47;24.70;99.90
47626;DHT22;33342;45.574;9.252;2023-07-13T03:59:15;24.70;99.90
47626;DHT22;33342;45.574;9.252;2023-07-13T04:01:43;24.80;99.90
47626;DHT22;33342;45.574;9.252;2023-07-13T04:04:12;24.80;99.90
47626;DHT22;33342;45.574;9.252;2023-07-13T04:06:39;24.80;99.90
47626;DHT22;33342;45.574;9.252;2023-07-13T04:09:06;24.70;99.90
47626;DHT22;33342;45.574;9.252;2023-07-13T04:11:34;24.80;99.90
47626;DHT22;33342;45.574;9.252;2023-07-13T04:14:04;24.80;99.90
47626;DHT22;33342;45.574;9.252;2023-07-13T04:16:33;24.80;99.90
47626;DHT22;33342;45.574;9.252;2023-07-13T04:19:00;24.70;99.90
47626;DHT22;33342;45.574;9.252;2023-07-13T04:21:30;24.80;99.90
47626;DHT22;33342;45.574;9.252;2023-07-13T04:23:58;24.80;99.90
47626;DHT22;33342;45.574;9.252;2023-07-13T04:26:25;24.80;99.90
47626;DHT22;33342;45.574;9.252;2023-07-13T04:28:52;24.80;99.90
47626;DHT22;33342;45.574;9.252;2023-07-13T04:31:19;24.80;99.90
47626;DHT22;33342;45.574;9.252;2023-07-13T04:33:47;24.80;99.90
47626;DHT22;33342;45.574;9.252;2023-07-13T04:36:16;24.80;99.90
47626;DHT22;33342;45.574;9.252;2023-07-13T04:38:43;24.80;99.90
47626;DHT22;33342;45.574;9.252;2023-07-13T04:41:12;24.80;99.90
47626;DHT22;33342;45.574;9.252;2023-07-13T04:43:39;24.80;99.90
47626;DHT22;33342;45.574;9.252;2023-07-13T04:46:08;24.80;99.90
47626;DHT22;33342;45.574;9.252;2023-07-13T04:48:37;24.80;99.90
47626;DHT22;33342;45.574;9.252;2023-07-13T04:51:05;24.80;99.90
47626;DHT22;33342;45.574;9.252;2023-07-13T04:53:32;24.80;99.90
47626;DHT22;33342;45.574;9.252;2023-07-13T04:56:02;24.80;99.90
47626;DHT22;33342;45.574;9.252;2023-07-13T04:58:30;24.80;99.90
47626;DHT22;33342;45.574;9.252;2023-07-13T05:01:01;24.80;99.90
47626;DHT22;33342;45.574;9.252;2023-07-13T05:03:29;24.80;99.90
47626;DHT22;33342;45.574;9.252;2023-07-13T05:06:07;24.80;99.90
47626;DHT22;33342;45.574;9.252;2023-07-13T05:08:36;24.80;99.90
47626;DHT22;33342;45.574;9.252;2023-07-13T05:11:04;24.80;99.90
47626;DHT22;33342;45.574;9.252;2023-07-13T05:13:32;24.80;99.90
47626;DHT22;33342;45.574;9.252;2023-07-13T05:16:02;24.80;99.90
47626;DHT22;33342;45.574;9.252;2023-07-13T05:18:30;24.80;99.90
47626;DHT22;33342;45.574;9.252;2023-07-13T05:20:59;24.80;99.90
47626;DHT22;33342;45.574;9.252;2023-07-13T05:23:27;24.90;99.90
47626;DHT22;33342;45.574;9.252;2023-07-13T05:25:55;24.90;99.90
47626;DHT22;33342;45.574;9.252;2023-07-13T05:28:22;24.90;99.90
47626;DHT22;33342;45.574;9.252;2023-07-13T05:30:50;24.90;99.90
47626;DHT22;33342;45.574;9.252;2023-07-13T05:33:17;24.90;99.90
47626;DHT22;33342;45.574;9.252;2023-07-13T05:35:44;24.90;99.90
47626;DHT22;33342;45.574;9.252;2023-07-13T05:38:12;24.90;99.90
47626;DHT22;33342;45.574;9.252;2023-07-13T05:40:39;25.00;99.90
47626;DHT22;33342;45.574;9.252;2023-07-13T05:43:06;25.00;99.90
47626;DHT22;33342;45.574;9.252;2023-07-13T05:45:33;25.00;99.90
47626;DHT22;33342;45.574;9.252;2023-07-13T05:48:00;24.90;99.90
47626;DHT22;33342;45.574;9.252;2023-07-13T05:50:27;25.00;99.90
47626;DHT22;33342;45.574;9.252;2023-07-13T05:52:54;25.00;99.90
47626;DHT22;33342;45.574;9.252;2023-07-13T05:55:23;25.00;99.90
47626;DHT22;33342;45.574;9.252;2023-07-13T05:57:50;25.00;99.90
47626;DHT22;33342;45.574;9.252;2023-07-13T06:00:18;25.00;99.90
47626;DHT22;33342;45.574;9.252;2023-07-13T06:02:45;25.00;99.90
47626;DHT22;33342;45.574;9.252;2023-07-13T06:05:13;25.10;99.90
47626;DHT22;33342;45.574;9.252;2023-07-13T06:07:41;25.10;99.90
47626;DHT22;33342;45.574;9.252;2023-07-13T06:10:09;25.10;99.90
47626;DHT22;33342;45.574;9.252;2023-07-13T06:12:36;25.00;99.90
47626;DHT22;33342;45.574;9.252;2023-07-13T06:15:04;25.00;99.90
47626;DHT22;33342;45.574;9.252;2023-07-13T06:17:31;25.00;99.90
47626;DHT22;33342;45.574;9.252;2023-07-13T06:19:58;25.10;99.90
47626;DHT22;33342;45.574;9.252;2023-07-13T06:22:25;25.10;99.90
47626;DHT22;33342;45.574;9.252;2023-07-13T06:24:52;25.10;99.90
47626;DHT22;33342;45.574;9.252;2023-07-13T06:27:20;25.20;99.90
47626;DHT22;33342;45.574;9.252;2023-07-13T06:29:47;25.20;99.90
47626;DHT22;33342;45.574;9.252;2023-07-13T06:32:14;25.20;99.90
47626;DHT22;33342;45.574;9.252;2023-07-13T06:34:41;25.20;99.90
47626;DHT22;33342;45.574;9.252;2023-07-13T06:37:09;25.20;99.90
47626;DHT22;33342;45.574;9.252;2023-07-13T06:39:37;25.20;99.90
47626;DHT22;33342;45.574;9.252;2023-07-13T06:42:05;25.20;99.90
47626;DHT22;33342;45.574;9.252;2023-07-13T06:44:32;25.20;99.90
47626;DHT22;33342;45.574;9.252;2023-07-13T06:47:00;25.30;99.90
47626;DHT22;33342;45.574;9.252;2023-07-13T06:49:27;25.30;99.90
47626;DHT22;33342;45.574;9.252;2023-07-13T06:51:54;25.30;99.90
47626;DHT22;33342;45.574;9.252;2023-07-13T06:54:21;25.30;99.90
47626;DHT22;33342;45.574;9.252;2023-07-13T06:56:49;25.30;99.90
47626;DHT22;33342;45.574;9.252;2023-07-13T06:59:16;25.30;99.90
47626;DHT22;33342;45.574;9.252;2023-07-13T07:01:43;25.40;99.90
47626;DHT22;33342;45.574;9.252;2023-07-13T07:04:10;25.40;99.90
47626;DHT22;33342;45.574;9.252;2023-07-13T07:06:37;25.40;99.90
47626;DHT22;33342;45.574;9.252;2023-07-13T07:09:04;25.40;99.90
47626;DHT22;33342;45.574;9.252;2023-07-13T07:11:32;25.40;99.90
47626;DHT22;33342;45.574;9.252;2023-07-13T07:13:59;25.40;99.90
47626;DHT22;33342;45.574;9.252;2023-07-13T07:16:26;25.50;99.90
47626;DHT22;33342;45.574;9.252;2023-07-13T07:18:53;25.50;99.90
47626;DHT22;33342;45.574;9.252;2023-07-13T07:21:20;25.60;99.90
47626;DHT22;33342;45.574;9.252;2023-07-13T07:23:51;25.60;99.90
47626;DHT22;33342;45.574;9.252;2023-07-13T07:26:18;25.60;99.90
47626;DHT22;33342;45.574;9.252;2023-07-13T07:28:49;25.60;99.90
47626;DHT22;33342;45.574;9.252;2023-07-13T07:31:36;25.60;99.90
47626;DHT22;33342;45.574;9.252;2023-07-13T07:34:07;25.70;99.90
47626;DHT22;33342;45.574;9.252;2023-07-13T07:36:34;25.70;99.90
47626;DHT22;33342;45.574;9.252;2023-07-13T07:39:04;25.70;99.90
47626;DHT22;33342;45.574;9.252;2023-07-13T07:41:31;25.70;99.90
47626;DHT22;33342;45.574;9.252;2023-07-13T07:44:01;25.70;99.90
47626;DHT22;33342;45.574;9.252;2023-07-13T07:46:30;25.70;99.90
47626;DHT22;33342;45.574;9.252;2023-07-13T07:48:57;25.70;99.90
47626;DHT22;33342;45.574;9.252;2023-07-13T07:51:25;25.70;99.90
47626;DHT22;33342;45.574;9.252;2023-07-13T07:53:53;25.70;99.90
47626;DHT22;33342;45.574;9.252;2023-07-13T07:56:20;25.70;99.90
47626;DHT22;33342;45.574;9.252;2023-07-13T07:58:51;25.70;99.90
47626;DHT22;33342;45.574;9.252;2023-07-13T08:01:22;25.70;99.90
47626;DHT22;33342;45.574;9.252;2023-07-13T08:03:52;25.80;99.90
47626;DHT22;33342;45.574;9.252;2023-07-13T08:06:23;25.70;99.90
47626;DHT22;33342;45.574;9.252;2023-07-13T08:08:53;25.80;99.90
47626;DHT22;33342;45.574;9.252;2023-07-13T08:11:21;25.80;99.90
47626;DHT22;33342;45.574;9.252;2023-07-13T08:13:52;25.80;99.90
47626;DHT22;33342;45.574;9.252;2023-07-13T08:16:22;25.90;99.90
47626;DHT22;33342;45.574;9.252;2023-07-13T08:18:49;26.00;99.90
47626;DHT22;33342;45.574;9.252;2023-07-13T08:21:17;26.00;99.90
47626;DHT22;33342;45.574;9.252;2023-07-13T08:23:46;26.00;99.90
47626;DHT22;33342;45.574;9.252;2023-07-13T08:26:14;26.10;99.90
47626;DHT22;33342;45.574;9.252;2023-07-13T08:28:41;26.10;99.90
47626;DHT22;33342;45.574;9.252;2023-07-13T08:31:09;26.20;99.90
47626;DHT22;33342;45.574;9.252;2023-07-13T08:33:38;26.20;99.90
47626;DHT22;33342;45.574;9.252;2023-07-13T08:36:05;26.30;99.90
47626;DHT22;33342;45.574;9.252;2023-07-13T08:38:33;26.30;99.90
47626;DHT22;33342;45.574;9.252;2023-07-13T08:41:04;26.30;99.90
47626;DHT22;33342;45.574;9.252;2023-07-13T08:43:37;26.40;99.90
47626;DHT22;33342;45.574;9.252;2023-07-13T08:46:20;26.30;99.90
47626;DHT22;33342;45.574;9.252;2023-07-13T08:48:59;26.40;99.90
47626;DHT22;33342;45.574;9.252;2023-07-13T08:51:43;26.40;99.90
47626;DHT22;33342;45.574;9.252;2023-07-13T08:54:37;26.50;99.90
47626;DHT22;33342;45.574;9.252;2023-07-13T08:57:17;26.50;99.90
47626;DHT22;33342;45.574;9.252;2023-07-13T08:59:46;26.40;99.90
47626;DHT22;33342;45.574;9.252;2023-07-13T09:02:26;26.50;99.90
47626;DHT22;33342;45.574;9.252;2023-07-13T09:04:59;26.40;99.90
47626;DHT22;33342;45.574;9.252;2023-07-13T09:13:32;26.40;99.90
47626;DHT22;33342;45.574;9.252;2023-07-13T09:16:01;26.50;99.90
47626;DHT22;33342;45.574;9.252;2023-07-13T09:18:33;26.50;99.90
47626;DHT22;33342;45.574;9.252;2023-07-13T09:21:07;26.50;99.90
47626;DHT22;33342;45.574;9.252;2023-07-13T09:23:36;26.50;99.90
47626;DHT22;33342;45.574;9.252;2023-07-13T09:26:22;26.50;99.90
47626;DHT22;33342;45.574;9.252;2023-07-13T09:29:03;26.50;99.90
47626;DHT22;33342;45.574;9.252;2023-07-13T09:31:43;26.60;99.90
47626;DHT22;33342;45.574;9.252;2023-07-13T09:34:12;26.50;99.90
47626;DHT22;33342;45.574;9.252;2023-07-13T09:36:40;26.60;99.90
47626;DHT22;33342;45.574;9.252;2023-07-13T09:47:25;26.70;99.90
47626;DHT22;33342;45.574;9.252;2023-07-13T09:49:59;26.70;99.90
47626;DHT22;33342;45.574;9.252;2023-07-13T09:52:46;26.70;99.90
47626;DHT22;33342;45.574;9.252;2023-07-13T09:55:32;26.80;99.90
47626;DHT22;33342;45.574;9.252;2023-07-13T09:58:21;26.80;99.90
47626;DHT22;33342;45.574;9.252;2023-07-13T10:01:00;26.90;99.90
47626;DHT22;33342;45.574;9.252;2023-07-13T10:03:33;26.80;99.90
47626;DHT22;33342;45.574;9.252;2023-07-13T10:06:14;26.90;99.90
47626;DHT22;33342;45.574;9.252;2023-07-13T10:08:41;26.90;99.90
47626;DHT22;33342;45.574;9.252;2023-07-13T10:11:14;26.90;99.90
47626;DHT22;33342;45.574;9.252;2023-07-13T10:16:39;26.90;99.90
47626;DHT22;33342;45.574;9.252;2023-07-13T10:19:21;26.90;99.90
47626;DHT22;33342;45.574;9.252;2023-07-13T10:21:57;26.90;99.90
47626;DHT22;33342;45.574;9.252;2023-07-13T10:24:33;27.00;99.90
47626;DHT22;33342;45.574;9.252;2023-07-13T10:29:38;27.00;99.90
47626;DHT22;33342;45.574;9.252;2023-07-13T10:32:12;27.00;99.90
47626;DHT22;33342;45.574;9.252;2023-07-13T10:34:43;27.00;99.90
47626;DHT22;33342;45.574;9.252;2023-07-13T10:37:19;27.00;99.90
47626;DHT22;33342;45.574;9.252;2023-07-13T10:39:48;27.00;99.90
47626;DHT22;33342;45.574;9.252;2023-07-13T10:42:25;27.00;99.90
47626;DHT22;33342;45.574;9.252;2023-07-13T10:44:54;27.00;99.90
47626;DHT22;33342;45.574;9.252;2023-07-13T10:47:22;27.00;99.90
47626;DHT22;33342;45.574;9.252;2023-07-13T10:49:54;27.00;99.90
47626;DHT22;33342;45.574;9.252;2023-07-13T10:52:42;27.00;99.90
47626;DHT22;33342;45.574;9.252;2023-07-13T10:55:30;27.00;99.90
47626;DHT22;33342;45.574;9.252;2023-07-13T10:58:02;27.10;99.90
47626;DHT22;33342;45.574;9.252;2023-07-13T11:00:31;27.10;99.90
47626;DHT22;33342;45.574;9.252;2023-07-13T11:03:00;27.10;99.90
47626;DHT22;33342;45.574;9.252;2023-07-13T11:05:32;27.10;99.90
47626;DHT22;33342;45.574;9.252;2023-07-13T11:08:20;27.10;99.90
47626;DHT22;33342;45.574;9.252;2023-07-13T11:10:53;27.10;99.90
47626;DHT22;33342;45.574;9.252;2023-07-13T11:14:00;27.10;99.90
47626;DHT22;33342;45.574;9.252;2023-07-13T11:16:46;27.10;99.90
47626;DHT22;33342;45.574;9.252;2023-07-13T11:22:23;27.10;99.90
47626;DHT22;33342;45.574;9.252;2023-07-13T11:27:34;27.20;99.90
47626;DHT22;33342;45.574;9.252;2023-07-13T11:30:21;27.20;99.90
47626;DHT22;33342;45.574;9.252;2023-07-13T11:32:51;27.30;99.90
47626;DHT22;33342;45.574;9.252;2023-07-13T11:35:23;27.30;99.90
47626;DHT22;33342;45.574;9.252;2023-07-13T11:37:53;27.40;99.90
47626;DHT22;33342;45.574;9.252;2023-07-13T11:40:23;27.40;99.90
47626;DHT22;33342;45.574;9.252;2023-07-13T11:42:52;27.40;99.90
47626;DHT22;33342;45.574;9.252;2023-07-13T11:45:21;27.40;99.90
47626;DHT22;33342;45.574;9.252;2023-07-13T11:48:01;27.40;99.90
47626;DHT22;33342;45.574;9.252;2023-07-13T11:50:28;27.40;99.90
47626;DHT22;33342;45.574;9.252;2023-07-13T11:52:58;27.40;99.90
47626;DHT22;33342;45.574;9.252;2023-07-13T11:55:26;27.50;99.90
47626;DHT22;33342;45.574;9.252;2023-07-13T11:57:58;27.50;99.90
47626;DHT22;33342;45.574;9.252;2023-07-13T12:00:28;27.50;99.90
47626;DHT22;33342;45.574;9.252;2023-07-13T12:03:00;27.50;99.90
47626;DHT22;33342;45.574;9.252;2023-07-13T12:05:29;27.50;99.90
47626;DHT22;33342;45.574;9.252;2023-07-13T12:07:58;27.60;99.90
47626;DHT22;33342;45.574;9.252;2023-07-13T12:10:30;27.60;99.90
47626;DHT22;33342;45.574;9.252;2023-07-13T12:13:04;27.60;99.90
47626;DHT22;33342;45.574;9.252;2023-07-13T12:15:43;27.60;99.90
47626;DHT22;33342;45.574;9.252;2023-07-13T12:18:19;27.60;99.90
47626;DHT22;33342;45.574;9.252;2023-07-13T12:20:48;27.60;99.90
47626;DHT22;33342;45.574;9.252;2023-07-13T12:25:58;27.70;99.90
47626;DHT22;33342;45.574;9.252;2023-07-13T12:28:49;27.70;99.90
47626;DHT22;33342;45.574;9.252;2023-07-13T12:31:25;27.70;99.90
47626;DHT22;33342;45.574;9.252;2023-07-13T12:36:31;27.60;99.90
47626;DHT22;33342;45.574;9.252;2023-07-13T12:39:02;27.60;99.90
47626;DHT22;33342;45.574;9.252;2023-07-13T12:41:31;27.60;99.90
47626;DHT22;33342;45.574;9.252;2023-07-13T12:43:59;27.60;99.90
47626;DHT22;33342;45.574;9.252;2023-07-13T12:46:27;27.60;99.90
47626;DHT22;33342;45.574;9.252;2023-07-13T12:48:57;27.60;99.90
47626;DHT22;33342;45.574;9.252;2023-07-13T12:51:44;27.60;99.90
47626;DHT22;33342;45.574;9.252;2023-07-13T12:54:16;27.50;99.90
47626;DHT22;33342;45.574;9.252;2023-07-13T12:56:44;27.50;99.90
47626;DHT22;33342;45.574;9.252;2023-07-13T12:59:20;27.50;99.90
47626;DHT22;33342;45.574;9.252;2023-07-13T13:01:48;27.60;99.90
47626;DHT22;33342;45.574;9.252;2023-07-13T13:04:17;27.60;99.90
47626;DHT22;33342;45.574;9.252;2023-07-13T13:06:49;27.60;99.90
47626;DHT22;33342;45.574;9.252;2023-07-13T13:09:27;27.70;99.90
47626;DHT22;33342;45.574;9.252;2023-07-13T13:11:54;27.70;99.90
47626;DHT22;33342;45.574;9.252;2023-07-13T13:14:22;27.70;99.90
47626;DHT22;33342;45.574;9.252;2023-07-13T13:16:50;27.80;99.90
47626;DHT22;33342;45.574;9.252;2023-07-13T13:19:19;27.80;99.90
47626;DHT22;33342;45.574;9.252;2023-07-13T13:21:49;27.80;99.90
47626;DHT22;33342;45.574;9.252;2023-07-13T13:24:21;27.80;99.90
47626;DHT22;33342;45.574;9.252;2023-07-13T13:26:50;27.90;99.90
47626;DHT22;33342;45.574;9.252;2023-07-13T13:29:22;27.90;99.90
47626;DHT22;33342;45.574;9.252;2023-07-13T13:31:56;28.00;99.90
47626;DHT22;33342;45.574;9.252;2023-07-13T13:34:25;28.00;99.90
47626;DHT22;33342;45.574;9.252;2023-07-13T13:36:53;28.00;99.90
47626;DHT22;33342;45.574;9.252;2023-07-13T13:41:58;28.10;99.90
47626;DHT22;33342;45.574;9.252;2023-07-13T13:44:26;28.10;99.90
47626;DHT22;33342;45.574;9.252;2023-07-13T13:46:54;28.10;99.90
47626;DHT22;33342;45.574;9.252;2023-07-13T13:49:25;28.10;99.90
47626;DHT22;33342;45.574;9.252;2023-07-13T13:51:53;28.10;99.90
47626;DHT22;33342;45.574;9.252;2023-07-13T13:54:22;28.20;99.90
47626;DHT22;33342;45.574;9.252;2023-07-13T13:56:51;28.20;99.90
47626;DHT22;33342;45.574;9.252;2023-07-13T13:59:23;28.20;99.90
47626;DHT22;33342;45.574;9.252;2023-07-13T14:01:51;28.20;99.90
47626;DHT22;33342;45.574;9.252;2023-07-13T14:04:20;28.20;99.90
47626;DHT22;33342;45.574;9.252;2023-07-13T14:06:49;28.30;99.90
47626;DHT22;33342;45.574;9.252;2023-07-13T14:09:18;28.20;99.90
47626;DHT22;33342;45.574;9.252;2023-07-13T14:11:48;28.20;99.90
47626;DHT22;33342;45.574;9.252;2023-07-13T14:14:20;28.30;99.90
47626;DHT22;33342;45.574;9.252;2023-07-13T14:16:49;28.30;99.90
47626;DHT22;33342;45.574;9.252;2023-07-13T14:19:21;28.30;99.90
47626;DHT22;33342;45.574;9.252;2023-07-13T14:21:48;28.30;99.90
47626;DHT22;33342;45.574;9.252;2023-07-13T14:24:16;28.40;99.90
47626;DHT22;33342;45.574;9.252;2023-07-13T14:26:46;28.40;99.90
47626;DHT22;33342;45.574;9.252;2023-07-13T14:29:16;28.40;99.90
47626;DHT22;33342;45.574;9.252;2023-07-13T14:31:52;28.50;99.90
47626;DHT22;33342;45.574;9.252;2023-07-13T14:34:20;28.50;99.90
47626;DHT22;33342;45.574;9.252;2023-07-13T14:36:48;28.60;99.90
47626;DHT22;33342;45.574;9.252;2023-07-13T14:39:23;28.60;99.90
47626;DHT22;33342;45.574;9.252;2023-07-13T14:41:53;28.60;99.90
47626;DHT22;33342;45.574;9.252;2023-07-13T14:44:24;28.70;99.90
47626;DHT22;33342;45.574;9.252;2023-07-13T14:46:52;28.70;99.90
47626;DHT22;33342;45.574;9.252;2023-07-13T14:49:37;28.70;99.90
47626;DHT22;33342;45.574;9.252;2023-07-13T14:52:16;28.80;99.90
47626;DHT22;33342;45.574;9.252;2023-07-13T14:54:44;28.80;99.90
47626;DHT22;33342;45.574;9.252;2023-07-13T14:57:15;28.90;99.90
47626;DHT22;33342;45.574;9.252;2023-07-13T14:59:43;28.90;99.90
47626;DHT22;33342;45.574;9.252;2023-07-13T15:02:14;29.00;99.90
47626;DHT22;33342;45.574;9.252;2023-07-13T15:04:44;28.90;99.90
47626;DHT22;33342;45.574;9.252;2023-07-13T15:07:12;29.00;99.90
47626;DHT22;33342;45.574;9.252;2023-07-13T15:09:42;29.10;99.90
47626;DHT22;33342;45.574;9.252;2023-07-13T15:12:10;29.20;99.90
47626;DHT22;33342;45.574;9.252;2023-07-13T15:14:37;29.40;99.90
47626;DHT22;33342;45.574;9.252;2023-07-13T15:17:08;29.50;99.90
47626;DHT22;33342;45.574;9.252;2023-07-13T15:19:40;29.60;99.90
47626;DHT22;33342;45.574;9.252;2023-07-13T15:22:08;29.70;99.90
47626;DHT22;33342;45.574;9.252;2023-07-13T15:24:36;29.90;99.90
47626;DHT22;33342;45.574;9.252;2023-07-13T15:27:07;30.10;99.90
47626;DHT22;33342;45.574;9.252;2023-07-13T15:29:36;30.20;99.90
47626;DHT22;33342;45.574;9.252;2023-07-13T15:32:08;30.40;99.90
47626;DHT22;33342;45.574;9.252;2023-07-13T15:34:37;30.60;99.90
47626;DHT22;33342;45.574;9.252;2023-07-13T15:37:08;30.80;99.90
47626;DHT22;33342;45.574;9.252;2023-07-13T15:39:38;30.90;99.90
47626;DHT22;33342;45.574;9.252;2023-07-13T15:42:07;31.10;99.90
47626;DHT22;33342;45.574;9.252;2023-07-13T15:44:35;31.20;99.90
47626;DHT22;33342;45.574;9.252;2023-07-13T15:47:04;31.20;99.90
47626;DHT22;33342;45.574;9.252;2023-07-13T15:49:31;31.20;99.90
47626;DHT22;33342;45.574;9.252;2023-07-13T15:51:59;31.30;99.90
47626;DHT22;33342;45.574;9.252;2023-07-13T15:54:26;31.40;99.90
47626;DHT22;33342;45.574;9.252;2023-07-13T15:56:55;31.40;99.90
47626;DHT22;33342;45.574;9.252;2023-07-13T15:59:23;31.40;99.90
47626;DHT22;33342;45.574;9.252;2023-07-13T16:01:50;31.40;99.90
47626;DHT22;33342;45.574;9.252;2023-07-13T16:04:17;31.50;99.90
47626;DHT22;33342;45.574;9.252;2023-07-13T16:06:47;31.50;99.90
47626;DHT22;33342;45.574;9.252;2023-07-13T16:09:20;31.60;99.90
47626;DHT22;33342;45.574;9.252;2023-07-13T16:11:53;31.60;99.90
47626;DHT22;33342;45.574;9.252;2023-07-13T16:14:22;31.60;99.90
47626;DHT22;33342;45.574;9.252;2023-07-13T16:16:52;31.50;99.90
47626;DHT22;33342;45.574;9.252;2023-07-13T16:19:22;31.40;99.90
47626;DHT22;33342;45.574;9.252;2023-07-13T16:21:56;31.40;99.90
47626;DHT22;33342;45.574;9.252;2023-07-13T16:24:27;31.30;99.90
47626;DHT22;33342;45.574;9.252;2023-07-13T16:26:55;31.30;99.90